createdAt,value
2023-02-14T00:00:23.255Z,19.45
2023-02-14T00:02:49.736Z,19.50
2023-02-14T00:05:16.260Z,18.77
2023-02-14T00:07:42.597Z,22.23
2023-02-14T00:10:09.696Z,21.30
2023-02-14T00:12:36.224Z,23.55
2023-02-14T00:15:21.519Z,21.75
2023-02-14T00:17:51.721Z,21.83
2023-02-14T00:20:18.713Z,19.95
2023-02-14T00:22:44.997Z,20.98
2023-02-14T00:25:11.440Z,19.83
2023-02-14T00:27:38.006Z,21.40
2023-02-14T00:30:06.026Z,19.80
2023-02-14T00:32:32.539Z,21.65
2023-02-14T00:34:59.194Z,21.42
2023-02-14T00:37:25.509Z,22.35
2023-02-14T00:39:51.909Z,19.38
2023-02-14T00:42:18.300Z,19.17
2023-02-14T00:44:44.569Z,19.60
2023-02-14T00:47:10.860Z,20.35
2023-02-14T00:49:37.180Z,22.33
2023-02-14T00:52:03.764Z,18.92
2023-02-14T00:54:30.108Z,20.17
2023-02-14T00:56:56.397Z,18.73
2023-02-14T00:59:22.771Z,18.42
2023-02-14T01:01:49.539Z,17.88
2023-02-14T01:04:15.900Z,17.60
2023-02-14T01:06:42.359Z,28.23
2023-02-14T01:09:08.690Z,15.45
2023-02-14T01:11:35.041Z,17.13
2023-02-14T01:14:01.876Z,19.75
2023-02-14T01:16:28.632Z,18.75
2023-02-14T01:18:55.989Z,19.50
2023-02-14T01:21:28.257Z,18.45
2023-02-14T01:23:56.301Z,17.33
2023-02-14T01:26:24.090Z,15.38
2023-02-14T01:28:50.830Z,18.98
2023-02-14T01:31:20.052Z,17.80
2023-02-14T01:33:48.622Z,17.27
2023-02-14T01:36:24.249Z,14.93
2023-02-14T01:38:53.053Z,17.17
2023-02-14T01:41:19.523Z,17.35
2023-02-14T01:43:50.058Z,18.27
2023-02-14T01:46:16.371Z,17.02
2023-02-14T01:48:42.741Z,21.85
2023-02-14T01:51:09.087Z,19.00
2023-02-14T01:53:35.611Z,19.08
2023-02-14T01:56:07.918Z,17.30
2023-02-14T01:58:37.900Z,19.63
2023-02-14T02:01:05.277Z,17.42
2023-02-14T02:06:03.331Z,20.58
2023-02-14T02:08:29.691Z,19.02
2023-02-14T02:10:56.028Z,20.05
2023-02-14T02:13:22.757Z,19.90
2023-02-14T02:16:12.426Z,18.15
2023-02-14T02:19:05.303Z,19.00
2023-02-14T02:24:52.538Z,19.92
2023-02-14T02:27:42.567Z,17.70
2023-02-14T02:30:34.776Z,19.73
2023-02-14T02:33:09.912Z,18.77
2023-02-14T02:35:50.062Z,18.90
2023-02-14T02:40:57.968Z,19.73
2023-02-14T02:43:45.171Z,16.30
2023-02-14T02:46:39.571Z,20.13
2023-02-14T02:49:11.740Z,20.90
2023-02-14T02:52:18.306Z,17.27
2023-02-14T02:54:52.372Z,17.25
2023-02-14T02:57:26.430Z,18.15
2023-02-14T02:59:55.875Z,18.00
2023-02-14T03:02:32.049Z,16.95
2023-02-14T03:05:01.801Z,21.38
2023-02-14T03:07:37.489Z,20.55
2023-02-14T03:10:16.808Z,18.23
2023-02-14T03:13:05.264Z,19.08
2023-02-14T03:15:55.917Z,17.25
2023-02-14T03:18:50.373Z,18.70
2023-02-14T03:21:29.638Z,15.73
2023-02-14T03:24:17.787Z,20.63
2023-02-14T03:27:11.603Z,19.63
2023-02-14T03:29:43.938Z,20.08
2023-02-14T03:32:29.219Z,17.50
2023-02-14T03:35:23.462Z,18.23
2023-02-14T03:37:57.719Z,25.33
2023-02-14T03:40:33.689Z,18.92
2023-02-14T03:43:18.628Z,18.90
2023-02-14T03:45:51.504Z,20.27
2023-02-14T03:48:20.595Z,18.58
2023-02-14T03:50:50.149Z,19.17
2023-02-14T03:53:22.814Z,25.85
2023-02-14T03:56:03.731Z,21.80
2023-02-14T03:58:38.935Z,22.73
2023-02-14T04:01:20.928Z,19.20
2023-02-14T04:03:48.757Z,19.30
2023-02-14T04:06:18.407Z,22.40
2023-02-14T04:08:44.833Z,18.75
2023-02-14T04:11:11.401Z,17.02
2023-02-14T04:13:38.585Z,24.70
2023-02-14T04:16:05.931Z,22.02
2023-02-14T04:21:17.379Z,18.38
2023-02-14T04:23:43.716Z,23.25
2023-02-14T04:26:10.306Z,20.55
2023-02-14T04:28:36.690Z,20.80
2023-02-14T04:31:04.980Z,21.23
2023-02-14T04:33:31.347Z,23.63
2023-02-14T04:35:57.641Z,23.17
2023-02-14T04:38:24.040Z,25.80
2023-02-14T04:40:51.985Z,22.48
2023-02-14T04:43:19.387Z,20.35
2023-02-14T04:48:13.125Z,21.80
2023-02-14T04:50:39.415Z,21.33
2023-02-14T04:53:05.706Z,26.98
2023-02-14T04:55:31.997Z,22.95
2023-02-14T04:57:58.352Z,23.83
2023-02-14T05:00:25.284Z,25.27
2023-02-14T05:02:51.617Z,26.00
2023-02-14T05:05:18.064Z,25.02
2023-02-14T05:07:47.779Z,26.17
2023-02-14T05:10:14.727Z,25.95
2023-02-14T05:12:41.149Z,27.38
2023-02-14T05:15:07.744Z,27.83
2023-02-14T05:17:34.073Z,28.52
2023-02-14T05:20:00.392Z,28.27
2023-02-14T05:22:26.782Z,26.27
2023-02-14T05:24:53.119Z,24.40
2023-02-14T05:27:19.458Z,28.77
2023-02-14T05:29:45.754Z,23.48
2023-02-14T05:32:12.165Z,24.45
2023-02-14T05:34:38.579Z,24.42
2023-02-14T05:37:04.925Z,25.02
2023-02-14T05:39:31.234Z,23.67
2023-02-14T05:41:59.332Z,25.70
2023-02-14T05:44:25.894Z,24.15
2023-02-14T05:46:52.355Z,23.73
2023-02-14T05:49:18.661Z,20.83
2023-02-14T05:51:44.983Z,25.25
2023-02-14T05:54:11.356Z,23.52
2023-02-14T05:56:37.765Z,21.38
2023-02-14T05:59:04.110Z,24.42
2023-02-14T06:01:30.397Z,21.08
2023-02-14T06:03:56.686Z,25.20
2023-02-14T06:06:23.026Z,21.60
2023-02-14T06:08:49.436Z,23.27
2023-02-14T06:11:15.963Z,24.90
2023-02-14T06:13:42.283Z,21.75
2023-02-14T06:16:08.618Z,23.52
2023-02-14T06:18:35.011Z,23.52
2023-02-14T06:21:01.734Z,24.10
2023-02-14T06:23:28.325Z,20.95
2023-02-14T06:25:54.647Z,19.08
2023-02-14T06:28:20.976Z,23.02
2023-02-14T06:30:47.467Z,22.83
2023-02-14T06:33:14.181Z,32.83
2023-02-14T06:35:40.523Z,21.67
2023-02-14T06:38:06.920Z,23.90
2023-02-14T06:40:33.261Z,20.67
2023-02-14T06:42:59.585Z,19.45
2023-02-14T06:45:25.981Z,20.30
2023-02-14T06:47:52.288Z,23.13
2023-02-14T06:50:18.693Z,21.40
2023-02-14T06:52:45.009Z,23.13
2023-02-14T06:55:13.713Z,20.33
2023-02-14T06:57:40.281Z,19.92
2023-02-14T07:00:07.588Z,22.48
2023-02-14T07:05:00.264Z,19.33
2023-02-14T07:07:26.604Z,19.92
2023-02-14T07:09:52.986Z,23.70
2023-02-14T07:12:19.281Z,21.05
2023-02-14T07:14:45.692Z,24.02
2023-02-14T07:17:12.041Z,27.48
2023-02-14T07:19:38.340Z,25.92
2023-02-14T07:22:04.713Z,17.80
2023-02-14T07:24:31.176Z,22.90
2023-02-14T07:26:57.484Z,19.67
2023-02-14T07:29:23.865Z,23.80
2023-02-14T07:31:50.439Z,24.88
2023-02-14T07:34:16.923Z,23.63
2023-02-14T07:36:44.123Z,23.52
2023-02-14T07:39:10.668Z,23.13
2023-02-14T07:41:37.307Z,21.63
2023-02-14T07:44:03.725Z,23.77
2023-02-14T07:46:30.408Z,20.08
2023-02-14T07:48:56.703Z,19.73
2023-02-14T07:51:22.995Z,21.38
2023-02-14T07:53:49.370Z,22.77
2023-02-14T07:56:15.725Z,20.42
2023-02-14T07:58:42.094Z,22.17
2023-02-14T08:01:08.977Z,20.83
2023-02-14T08:03:35.459Z,17.77
2023-02-14T08:06:18.733Z,18.45
2023-02-14T08:08:45.719Z,17.40
2023-02-14T08:11:15.136Z,17.20
2023-02-14T08:13:41.421Z,18.52
2023-02-14T08:16:09.566Z,16.48
2023-02-14T08:18:39.826Z,17.35
2023-02-14T08:21:08.956Z,16.58
2023-02-14T08:23:36.159Z,15.80
2023-02-14T08:26:03.559Z,18.02
2023-02-14T08:28:29.946Z,16.73
2023-02-14T08:30:56.425Z,16.08
2023-02-14T08:33:22.995Z,20.20
2023-02-14T08:40:29.071Z,18.10
2023-02-14T08:42:55.416Z,14.98
2023-02-14T08:45:21.867Z,16.27
2023-02-14T08:47:51.001Z,15.48
2023-02-14T08:50:18.063Z,16.35
2023-02-14T08:52:44.495Z,17.85
2023-02-14T08:55:15.161Z,15.77
2023-02-14T08:57:44.069Z,14.07
2023-02-14T09:00:12.203Z,18.02
2023-02-14T09:09:05.050Z,13.40
2023-02-14T09:11:47.754Z,13.52
2023-02-14T09:14:17.426Z,16.98
2023-02-14T09:16:44.074Z,17.15
2023-02-14T09:19:10.567Z,17.33
2023-02-14T09:21:36.999Z,17.42
2023-02-14T09:24:05.706Z,16.55
2023-02-14T09:26:32.612Z,16.17
2023-02-14T09:29:00.445Z,17.67
2023-02-14T09:31:26.916Z,17.67
2023-02-14T09:33:53.538Z,17.17
2023-02-14T09:36:20.044Z,15.68
2023-02-14T09:38:47.270Z,19.63
2023-02-14T09:44:09.152Z,15.00
2023-02-14T09:46:52.843Z,15.10
2023-02-14T09:49:52.633Z,15.35
2023-02-14T09:52:37.143Z,14.88
2023-02-14T09:55:19.991Z,13.68
2023-02-14T09:58:21.888Z,17.63
2023-02-14T10:01:05.453Z,17.67
2023-02-14T10:04:00.014Z,18.50
2023-02-14T10:06:50.704Z,14.98
2023-02-14T10:09:46.233Z,17.70
2023-02-14T10:12:28.409Z,14.18
2023-02-14T10:15:42.504Z,16.75
2023-02-14T10:21:42.639Z,21.13
2023-02-14T10:24:18.968Z,14.90
2023-02-14T10:26:50.651Z,17.05
2023-02-14T10:29:20.171Z,18.75
2023-02-14T10:31:51.538Z,17.40
2023-02-14T10:34:42.452Z,17.15
2023-02-14T10:37:17.314Z,14.05
2023-02-14T10:40:04.906Z,16.77
2023-02-14T10:43:00.146Z,15.20
2023-02-14T10:45:47.627Z,16.98
2023-02-14T10:48:29.789Z,18.33
2023-02-14T10:50:59.751Z,15.63
2023-02-14T10:53:36.693Z,15.55
2023-02-14T10:56:14.630Z,12.68
2023-02-14T10:58:42.049Z,15.20
2023-02-14T11:01:13.188Z,13.55
2023-02-14T11:06:16.028Z,13.80
2023-02-14T11:08:42.707Z,15.80
2023-02-14T11:11:20.041Z,13.98
2023-02-14T11:13:46.974Z,15.57
2023-02-14T11:16:30.497Z,15.40
2023-02-14T11:19:15.309Z,13.50
2023-02-14T11:21:52.655Z,13.93
2023-02-14T11:24:53.443Z,13.95
2023-02-14T11:27:29.023Z,13.90
2023-02-14T11:30:01.078Z,14.55
2023-02-14T11:32:40.237Z,13.13
2023-02-14T11:35:19.494Z,13.40
2023-02-14T11:37:51.294Z,13.85
2023-02-14T11:40:38.496Z,14.40
2023-02-14T11:43:14.217Z,15.93
2023-02-14T11:45:45.930Z,13.82
2023-02-14T11:48:37.753Z,17.40
2023-02-14T11:53:47.451Z,12.82
2023-02-14T11:56:19.447Z,13.60
2023-02-14T11:58:55.900Z,13.90
2023-02-14T12:01:31.428Z,18.23
2023-02-14T12:04:32.704Z,16.77
2023-02-14T12:14:35.529Z,16.08
2023-02-14T12:17:11.129Z,13.88
2023-02-14T12:20:11.990Z,13.63
2023-02-14T12:30:20.019Z,15.00
2023-02-14T12:32:56.659Z,16.05
2023-02-14T12:35:47.192Z,14.07
2023-02-14T12:38:46.945Z,18.05
2023-02-14T12:41:35.690Z,15.48
2023-02-14T12:52:08.282Z,16.30
2023-02-14T12:54:48.105Z,14.25
2023-02-14T12:57:29.435Z,16.67
2023-02-14T13:00:17.556Z,20.90
2023-02-14T13:03:13.729Z,19.67
2023-02-14T13:06:10.261Z,18.25
2023-02-14T13:08:41.513Z,17.85
2023-02-14T13:11:36.473Z,15.75
2023-02-14T13:14:28.933Z,18.60
2023-02-14T13:17:24.051Z,16.55
2023-02-14T13:20:51.478Z,18.58
2023-02-14T13:26:32.573Z,18.05
2023-02-14T13:35:31.293Z,17.80
2023-02-14T13:38:25.565Z,21.65
2023-02-14T13:45:43.326Z,21.77
2023-02-14T13:48:31.811Z,18.85
2023-02-14T13:51:11.531Z,22.05
2023-02-14T13:54:07.636Z,20.00
2023-02-14T13:56:39.912Z,19.25
2023-02-14T13:59:39.930Z,18.65
2023-02-14T14:02:33.742Z,19.02
2023-02-14T14:05:48.009Z,19.77
2023-02-14T14:08:26.638Z,22.13
2023-02-14T14:11:07.157Z,19.85
2023-02-14T14:14:55.285Z,21.38
2023-02-14T14:17:04.825Z,21.40
2023-02-14T14:19:45.075Z,22.83
2023-02-14T14:31:47.209Z,18.23
2023-02-14T14:34:20.186Z,20.75
2023-02-14T14:36:47.099Z,20.83
2023-02-14T14:39:27.014Z,19.27
2023-02-14T14:41:53.555Z,20.42
2023-02-14T14:44:28.438Z,23.02
2023-02-14T15:02:25.230Z,22.23
2023-02-14T15:17:59.512Z,24.00
2023-02-14T15:20:32.235Z,22.73
2023-02-14T15:23:06.191Z,22.25
2023-02-14T15:45:04.694Z,25.92
2023-02-14T15:47:31.090Z,28.67
2023-02-14T15:49:57.514Z,25.35
2023-02-14T15:52:25.798Z,29.35
2023-02-14T16:06:46.799Z,27.30
2023-02-14T16:09:28.070Z,25.73
2023-02-14T16:11:54.874Z,28.63
2023-02-14T16:14:46.933Z,30.08
2023-02-14T16:17:18.890Z,29.00
2023-02-14T16:19:49.689Z,27.25
2023-02-14T16:22:35.669Z,31.00
2023-02-14T16:27:37.073Z,30.52
2023-02-14T16:30:06.350Z,30.45
2023-02-14T16:32:36.609Z,29.67
2023-02-14T17:33:30.356Z,35.85
2023-02-14T17:36:04.232Z,38.30
2023-02-14T17:38:31.877Z,35.75
2023-02-14T17:41:00.084Z,39.65
2023-02-14T17:43:28.514Z,38.63
2023-02-14T17:45:57.160Z,34.15
2023-02-14T17:48:25.090Z,48.65
2023-02-14T17:50:53.140Z,39.53
2023-02-14T17:56:43.109Z,40.42
2023-02-14T17:59:09.436Z,41.03
2023-02-14T18:01:36.303Z,35.83
2023-02-14T18:04:02.760Z,40.60
2023-02-14T18:06:29.054Z,41.70
2023-02-14T18:08:58.467Z,37.70
2023-02-14T18:11:27.946Z,45.00
2023-02-14T18:13:55.815Z,39.05
2023-02-14T18:16:22.843Z,46.30
2023-02-14T18:18:49.209Z,41.50
2023-02-14T18:21:19.304Z,44.30
2023-02-14T18:23:45.677Z,42.72
2023-02-14T18:26:15.041Z,42.10
2023-02-14T18:28:41.530Z,36.35
2023-02-14T18:31:13.193Z,40.58
2023-02-14T18:33:40.511Z,37.90
2023-02-14T18:38:35.601Z,38.28
2023-02-14T18:41:07.176Z,40.35
2023-02-14T18:43:33.665Z,45.67
2023-02-14T18:46:05.268Z,38.90
2023-02-14T18:48:32.323Z,41.63
2023-02-14T18:51:05.703Z,43.78
2023-02-14T18:53:32.032Z,40.67
2023-02-14T18:55:58.441Z,40.85
2023-02-14T18:58:24.942Z,40.00
2023-02-14T19:00:51.356Z,43.67
2023-02-14T19:03:17.664Z,43.15
2023-02-14T19:05:43.977Z,53.20
2023-02-14T19:08:10.253Z,48.08
2023-02-14T19:10:37.733Z,44.05
2023-02-14T19:13:04.053Z,39.83
2023-02-14T19:15:30.374Z,36.50
2023-02-14T19:17:56.664Z,41.65
2023-02-14T19:20:23.029Z,41.58
2023-02-14T19:22:49.631Z,35.60
2023-02-14T19:25:16.011Z,43.50
2023-02-14T19:27:42.943Z,43.00
2023-02-14T19:30:10.654Z,39.55
2023-02-14T19:32:37.104Z,40.63
2023-02-14T19:35:03.540Z,38.60
2023-02-14T19:37:29.883Z,39.15
2023-02-14T19:39:56.263Z,37.05
2023-02-14T19:42:22.600Z,37.55
2023-02-14T19:44:48.918Z,40.33
2023-02-14T19:47:30.971Z,37.67
2023-02-14T19:50:00.145Z,47.80
2023-02-14T19:52:28.078Z,40.65
2023-02-14T19:54:57.439Z,40.10
2023-02-14T19:57:24.680Z,40.53
2023-02-14T20:02:18.868Z,36.10
2023-02-14T20:04:45.548Z,35.35
2023-02-14T20:07:11.896Z,36.30
2023-02-14T20:09:38.280Z,39.92
2023-02-14T20:12:04.861Z,38.25
2023-02-14T20:14:49.809Z,35.40
2023-02-14T20:17:17.898Z,36.22
2023-02-14T20:19:44.258Z,43.47
2023-02-14T20:22:10.635Z,39.22
2023-02-14T20:24:36.963Z,43.78
2023-02-14T20:27:03.342Z,45.50
2023-02-14T20:29:30.028Z,40.10
2023-02-14T20:31:59.630Z,32.40
2023-02-14T20:34:26.546Z,34.00
2023-02-14T20:36:55.116Z,31.75
2023-02-14T20:39:26.552Z,34.67
2023-02-14T20:41:53.967Z,35.08
2023-02-14T20:44:21.398Z,28.95
2023-02-14T20:46:49.504Z,31.55
2023-02-14T20:49:16.376Z,33.72
2023-02-14T20:51:43.586Z,34.10
2023-02-14T20:54:09.956Z,35.42
2023-02-14T20:56:36.971Z,33.53
2023-02-14T20:59:03.296Z,35.83
2023-02-14T21:01:30.267Z,35.50
2023-02-14T21:03:56.663Z,34.08
2023-02-14T21:06:29.649Z,31.50
2023-02-14T21:08:56.238Z,30.40
2023-02-14T21:11:24.185Z,37.45
2023-02-14T21:13:59.488Z,33.00
2023-02-14T21:16:26.995Z,37.58
2023-02-14T21:18:58.864Z,37.72
2023-02-14T21:21:33.764Z,33.90
2023-02-14T21:24:08.538Z,35.67
2023-02-14T21:26:35.923Z,29.73
2023-02-14T21:29:02.401Z,31.42
2023-02-14T21:31:29.174Z,36.83
2023-02-14T21:33:58.107Z,30.33
2023-02-14T21:36:26.989Z,36.05
2023-02-14T21:38:55.795Z,34.85
2023-02-14T21:41:23.813Z,32.03
2023-02-14T21:43:52.795Z,32.20
2023-02-14T21:46:27.045Z,32.08
2023-02-14T21:49:13.300Z,32.83
2023-02-14T21:51:40.130Z,28.50
2023-02-14T21:54:07.124Z,36.33
2023-02-14T21:56:34.743Z,33.20
2023-02-14T21:59:01.636Z,31.40
2023-02-14T22:01:33.532Z,37.58
2023-02-14T22:04:00.699Z,36.53
2023-02-14T22:06:27.427Z,32.60
2023-02-14T22:08:55.804Z,36.53
2023-02-14T22:11:23.581Z,33.63
2023-02-14T22:13:49.911Z,33.22
2023-02-14T22:16:19.033Z,32.63
2023-02-14T22:18:48.854Z,34.88
2023-02-14T22:21:21.589Z,34.88
2023-02-14T22:23:48.396Z,32.33
2023-02-14T22:26:17.982Z,34.78
2023-02-14T22:28:46.635Z,33.25
2023-02-14T22:31:13.940Z,35.95
2023-02-14T22:33:40.841Z,35.42
2023-02-14T22:36:07.795Z,30.52
2023-02-14T22:38:35.065Z,28.73
2023-02-14T22:41:15.299Z,29.67
2023-02-14T22:43:42.602Z,32.13
2023-02-14T22:48:37.815Z,31.77
2023-02-14T22:51:35.525Z,35.05
2023-02-14T22:54:08.227Z,30.40
2023-02-14T22:56:38.594Z,31.50
2023-02-14T22:59:07.377Z,29.70
2023-02-14T23:01:35.092Z,32.35
2023-02-14T23:04:02.702Z,31.77
2023-02-14T23:06:31.724Z,27.83
2023-02-14T23:08:58.160Z,31.08
2023-02-14T23:11:32.790Z,29.52
2023-02-14T23:14:18.362Z,29.02
2023-02-14T23:17:03.494Z,29.02
2023-02-14T23:19:51.216Z,31.02
2023-02-14T23:22:21.840Z,29.85
2023-02-14T23:24:50.135Z,30.95
2023-02-14T23:27:18.886Z,30.02
2023-02-14T23:29:45.320Z,28.42
2023-02-14T23:32:12.137Z,30.55
2023-02-14T23:34:41.184Z,32.85
2023-02-14T23:37:08.340Z,33.47
2023-02-14T23:39:37.653Z,33.10
2023-02-14T23:42:06.091Z,31.63
2023-02-14T23:44:33.259Z,29.55
2023-02-14T23:47:01.578Z,32.13
2023-02-14T23:49:28.263Z,30.05
2023-02-14T23:51:55.391Z,31.40
2023-02-14T23:54:23.446Z,29.10
2023-02-14T23:56:52.100Z,28.27
2023-02-14T23:59:19.572Z,26.52
